< < Back
Terminal Aerodrome Forecast


Current Version              Previous Versions:   1  2  3  4  5  6  7  8  9  

Terminal Aerodrome Forecast

885
FTUS42 KILM 240500
TAFFLO
TAF
KFLO 240520Z 2406/2506 VRB03KT P6SM BKN250
     FM250000 00000KT P6SM SCT200=



Latest METAR

813
SAUS70 KWBC 242100 RRA
MTRFLO
METAR KFLO 242053Z 31003KT 10SM CLR 21/07 A2997 RMK AO2 SLP146 T02110067
56012


USA.gov is the U.S. government's official web portal to all federal, state and local government web resources and services.